sensor_id;sensor_type;location;lat;lon;timestamp;pressure;altitude;pressure_sealevel;temperature;humidity
77161;BME280;66135;0.000;0.000;2023-02-28T00:00:33;102914.22;;;18.08;50.61
77161;BME280;66135;0.000;0.000;2023-02-28T00:02:59;102912.47;;;18.07;50.70
77161;BME280;66135;0.000;0.000;2023-02-28T00:05:26;102905.47;;;18.04;50.43
77161;BME280;66135;0.000;0.000;2023-02-28T00:07:52;102911.84;;;18.03;50.51
77161;BME280;66135;0.000;0.000;2023-02-28T00:10:22;102908.41;;;18.01;50.28
77161;BME280;66135;0.000;0.000;2023-02-28T00:12:52;102905.06;;;17.97;50.60
77161;BME280;66135;0.000;0.000;2023-02-28T00:15:19;102910.63;;;17.96;50.69
77161;BME280;66135;0.000;0.000;2023-02-28T00:17:45;102909.19;;;17.92;50.30
77161;BME280;66135;0.000;0.000;2023-02-28T00:20:11;102914.59;;;17.92;50.57
77161;BME280;66135;0.000;0.000;2023-02-28T00:22:42;102913.72;;;17.91;50.35
77161;BME280;66135;0.000;0.000;2023-02-28T00:25:31;102911.13;;;17.90;50.50
77161;BME280;66135;0.000;0.000;2023-02-28T00:27:56;102913.09;;;17.88;50.21
77161;BME280;66135;0.000;0.000;2023-02-28T00:30:23;102909.66;;;17.86;50.30
77161;BME280;66135;0.000;0.000;2023-02-28T00:32:49;102906.19;;;17.84;50.37
77161;BME280;66135;0.000;0.000;2023-02-28T00:35:15;102908.66;;;17.87;50.11
77161;BME280;66135;0.000;0.000;2023-02-28T00:37:42;102912.00;;;17.79;50.08
77161;BME280;66135;0.000;0.000;2023-02-28T00:40:09;102907.44;;;17.80;50.06
77161;BME280;66135;0.000;0.000;2023-02-28T00:42:35;102913.97;;;17.77;50.17
77161;BME280;66135;0.000;0.000;2023-02-28T00:45:01;102919.66;;;17.74;50.42
77161;BME280;66135;0.000;0.000;2023-02-28T00:47:26;102919.78;;;17.73;50.24
77161;BME280;66135;0.000;0.000;2023-02-28T00:49:52;102911.72;;;17.71;50.20
77161;BME280;66135;0.000;0.000;2023-02-28T00:52:17;102912.59;;;17.72;49.75
77161;BME280;66135;0.000;0.000;2023-02-28T00:54:43;102916.19;;;17.72;49.84
77161;BME280;66135;0.000;0.000;2023-02-28T00:57:08;102919.03;;;17.71;49.55
77161;BME280;66135;0.000;0.000;2023-02-28T00:59:33;102918.03;;;17.72;49.94
77161;BME280;66135;0.000;0.000;2023-02-28T01:01:59;102915.81;;;17.66;49.77
77161;BME280;66135;0.000;0.000;2023-02-28T01:04:24;102921.25;;;17.66;49.77
77161;BME280;66135;0.000;0.000;2023-02-28T01:06:50;102922.94;;;17.67;49.47
77161;BME280;66135;0.000;0.000;2023-02-28T01:09:15;102926.13;;;17.61;49.89
77161;BME280;66135;0.000;0.000;2023-02-28T01:11:41;102926.38;;;17.58;49.74
77161;BME280;66135;0.000;0.000;2023-02-28T01:14:12;102925.50;;;17.57;49.65
77161;BME280;66135;0.000;0.000;2023-02-28T01:16:37;102939.19;;;17.56;49.82
77161;BME280;66135;0.000;0.000;2023-02-28T01:19:03;102930.22;;;17.55;49.88
77161;BME280;66135;0.000;0.000;2023-02-28T01:21:28;102925.75;;;17.54;49.67
77161;BME280;66135;0.000;0.000;2023-02-28T01:23:56;102925.88;;;17.53;49.88
77161;BME280;66135;0.000;0.000;2023-02-28T01:26:23;102930.44;;;17.52;49.66
77161;BME280;66135;0.000;0.000;2023-02-28T01:28:50;102941.19;;;17.54;49.82
77161;BME280;66135;0.000;0.000;2023-02-28T01:31:16;102928.59;;;17.53;49.57
77161;BME280;66135;0.000;0.000;2023-02-28T01:33:43;102931.31;;;17.53;49.40
77161;BME280;66135;0.000;0.000;2023-02-28T01:36:19;102930.69;;;17.49;50.00
77161;BME280;66135;0.000;0.000;2023-02-28T01:38:45;102927.97;;;17.49;49.59
77161;BME280;66135;0.000;0.000;2023-02-28T01:41:24;102937.09;;;17.48;49.46
77161;BME280;66135;0.000;0.000;2023-02-28T01:44:01;102934.56;;;17.45;49.71
77161;BME280;66135;0.000;0.000;2023-02-28T01:46:44;102931.03;;;17.45;49.82
77161;BME280;66135;0.000;0.000;2023-02-28T01:49:13;102924.97;;;17.41;49.74
77161;BME280;66135;0.000;0.000;2023-02-28T01:51:46;102925.81;;;17.42;49.88
77161;BME280;66135;0.000;0.000;2023-02-28T01:54:22;102925.31;;;17.37;49.73
77161;BME280;66135;0.000;0.000;2023-02-28T01:56:54;102917.06;;;17.38;49.83
77161;BME280;66135;0.000;0.000;2023-02-28T01:59:25;102909.94;;;17.37;50.03
77161;BME280;66135;0.000;0.000;2023-02-28T02:01:53;102906.59;;;17.34;49.69
77161;BME280;66135;0.000;0.000;2023-02-28T02:04:19;102907.59;;;17.33;49.69
77161;BME280;66135;0.000;0.000;2023-02-28T02:06:47;102906.72;;;17.32;49.93
77161;BME280;66135;0.000;0.000;2023-02-28T02:09:13;102903.41;;;17.29;49.70
77161;BME280;66135;0.000;0.000;2023-02-28T02:11:39;102899.69;;;17.30;49.68
77161;BME280;66135;0.000;0.000;2023-02-28T02:14:30;102899.81;;;17.28;49.60
77161;BME280;66135;0.000;0.000;2023-02-28T02:30:08;102884.19;;;17.21;49.80
77161;BME280;66135;0.000;0.000;2023-02-28T02:35:26;102885.41;;;17.17;49.93
77161;BME280;66135;0.000;0.000;2023-02-28T02:38:24;102878.16;;;17.17;49.92
77161;BME280;66135;0.000;0.000;2023-02-28T02:41:08;102882.94;;;17.14;49.87
77161;BME280;66135;0.000;0.000;2023-02-28T02:43:51;102877.09;;;17.07;50.05
77161;BME280;66135;0.000;0.000;2023-02-28T02:46:29;102893.34;;;17.07;49.99
77161;BME280;66135;0.000;0.000;2023-02-28T02:48:57;102889.91;;;17.05;50.25
77161;BME280;66135;0.000;0.000;2023-02-28T02:51:25;102888.19;;;17.04;50.14
77161;BME280;66135;0.000;0.000;2023-02-28T02:53:56;102883.66;;;17.05;50.30
77161;BME280;66135;0.000;0.000;2023-02-28T02:56:26;102889.28;;;17.02;50.18
77161;BME280;66135;0.000;0.000;2023-02-28T02:58:57;102888.78;;;16.97;50.14
77161;BME280;66135;0.000;0.000;2023-02-28T03:01:26;102896.88;;;16.97;50.26
77161;BME280;66135;0.000;0.000;2023-02-28T03:03:59;102888.78;;;16.97;50.19
77161;BME280;66135;0.000;0.000;2023-02-28T03:06:43;102897.75;;;16.97;50.08
77161;BME280;66135;0.000;0.000;2023-02-28T03:09:08;102891.72;;;16.94;50.22
77161;BME280;66135;0.000;0.000;2023-02-28T03:11:37;102893.44;;;16.95;50.30
77161;BME280;66135;0.000;0.000;2023-02-28T03:20:26;102892.22;;;16.88;50.17
77161;BME280;66135;0.000;0.000;2023-02-28T03:23:17;102888.75;;;16.85;50.18
77161;BME280;66135;0.000;0.000;2023-02-28T03:25:56;102890.47;;;16.86;50.22
77161;BME280;66135;0.000;0.000;2023-02-28T03:29:15;102892.28;;;16.86;50.29
77161;BME280;66135;0.000;0.000;2023-02-28T03:32:50;102881.59;;;16.84;50.04
77161;BME280;66135;0.000;0.000;2023-02-28T03:35:14;102887.25;;;16.81;50.28
77161;BME280;66135;0.000;0.000;2023-02-28T03:37:40;102885.75;;;16.77;50.30
77161;BME280;66135;0.000;0.000;2023-02-28T03:40:15;102881.09;;;16.79;50.40
77161;BME280;66135;0.000;0.000;2023-02-28T03:42:45;102880.97;;;16.81;49.96
77161;BME280;66135;0.000;0.000;2023-02-28T03:45:16;102890.31;;;16.77;50.23
77161;BME280;66135;0.000;0.000;2023-02-28T03:47:53;102882.19;;;16.77;50.41
77161;BME280;66135;0.000;0.000;2023-02-28T03:52:58;102881.31;;;16.76;50.16
77161;BME280;66135;0.000;0.000;2023-02-28T03:55:32;102882.53;;;16.72;50.39
77161;BME280;66135;0.000;0.000;2023-02-28T03:58:08;102891.53;;;16.73;50.37
77161;BME280;66135;0.000;0.000;2023-02-28T04:00:50;102892.28;;;16.75;50.03
77161;BME280;66135;0.000;0.000;2023-02-28T04:03:18;102888.81;;;16.73;50.19
77161;BME280;66135;0.000;0.000;2023-02-28T04:05:54;102893.34;;;16.72;50.03
77161;BME280;66135;0.000;0.000;2023-02-28T04:08:21;102890.75;;;16.71;50.12
77161;BME280;66135;0.000;0.000;2023-02-28T04:10:48;102897.88;;;16.72;50.06
77161;BME280;66135;0.000;0.000;2023-02-28T04:13:16;102894.47;;;16.70;49.91
77161;BME280;66135;0.000;0.000;2023-02-28T04:15:42;102897.25;;;16.68;50.14
77161;BME280;66135;0.000;0.000;2023-02-28T04:18:08;102903.66;;;16.67;50.04
77161;BME280;66135;0.000;0.000;2023-02-28T04:20:33;102891.13;;;16.66;50.21
77161;BME280;66135;0.000;0.000;2023-02-28T04:22:59;102897.75;;;16.62;50.22
77161;BME280;66135;0.000;0.000;2023-02-28T04:25:27;102896.63;;;16.65;50.09
77161;BME280;66135;0.000;0.000;2023-02-28T04:27:52;102899.47;;;16.63;50.01
77161;BME280;66135;0.000;0.000;2023-02-28T04:30:18;102905.09;;;16.60;50.25
77161;BME280;66135;0.000;0.000;2023-02-28T04:32:43;102908.06;;;16.57;50.33
77161;BME280;66135;0.000;0.000;2023-02-28T04:35:09;102908.69;;;16.61;50.07
77161;BME280;66135;0.000;0.000;2023-02-28T04:37:34;102899.94;;;16.57;50.43
77161;BME280;66135;0.000;0.000;2023-02-28T04:40:10;102897.09;;;16.59;50.56
77161;BME280;66135;0.000;0.000;2023-02-28T04:42:35;102903.50;;;16.58;50.24
77161;BME280;66135;0.000;0.000;2023-02-28T04:45:02;102902.75;;;16.56;50.27
77161;BME280;66135;0.000;0.000;2023-02-28T04:47:28;102899.41;;;16.52;50.49
77161;BME280;66135;0.000;0.000;2023-02-28T04:49:53;102902.00;;;16.54;50.49
77161;BME280;66135;0.000;0.000;2023-02-28T04:52:19;102905.59;;;16.54;50.28
77161;BME280;66135;0.000;0.000;2023-02-28T04:54:50;102903.84;;;16.53;50.29
77161;BME280;66135;0.000;0.000;2023-02-28T04:57:15;102898.78;;;16.49;50.33
77161;BME280;66135;0.000;0.000;2023-02-28T04:59:40;102897.91;;;16.48;50.38
77161;BME280;66135;0.000;0.000;2023-02-28T05:02:06;102903.19;;;16.50;50.23
77161;BME280;66135;0.000;0.000;2023-02-28T05:04:35;102905.16;;;16.48;50.24
77161;BME280;66135;0.000;0.000;2023-02-28T05:07:01;102904.31;;;16.47;50.38
77161;BME280;66135;0.000;0.000;2023-02-28T05:09:27;102906.16;;;16.47;50.43
77161;BME280;66135;0.000;0.000;2023-02-28T05:11:53;102904.38;;;16.46;50.54
77161;BME280;66135;0.000;0.000;2023-02-28T05:14:18;102903.53;;;16.45;50.54
77161;BME280;66135;0.000;0.000;2023-02-28T05:16:44;102908.06;;;16.45;50.49
77161;BME280;66135;0.000;0.000;2023-02-28T05:19:09;102909.13;;;16.42;50.50
77161;BME280;66135;0.000;0.000;2023-02-28T05:21:40;102926.34;;;16.41;50.29
77161;BME280;66135;0.000;0.000;2023-02-28T05:24:11;102911.22;;;16.39;50.49
77161;BME280;66135;0.000;0.000;2023-02-28T05:26:47;102917.59;;;16.38;50.32
77161;BME280;66135;0.000;0.000;2023-02-28T05:29:13;102913.19;;;16.37;50.51
77161;BME280;66135;0.000;0.000;2023-02-28T05:31:38;102911.56;;;16.34;50.57
77161;BME280;66135;0.000;0.000;2023-02-28T05:34:04;102922.38;;;16.34;50.85
77161;BME280;66135;0.000;0.000;2023-02-28T05:36:29;102923.50;;;16.32;50.96
77161;BME280;66135;0.000;0.000;2023-02-28T05:38:55;102926.19;;;16.32;50.87
77161;BME280;66135;0.000;0.000;2023-02-28T05:41:21;102930.72;;;16.31;51.27
77161;BME280;66135;0.000;0.000;2023-02-28T05:43:47;102928.03;;;16.31;51.03
77161;BME280;66135;0.000;0.000;2023-02-28T05:46:12;102931.69;;;16.30;51.30
77161;BME280;66135;0.000;0.000;2023-02-28T05:48:39;102924.56;;;16.29;51.17
77161;BME280;66135;0.000;0.000;2023-02-28T05:51:07;102930.84;;;16.30;51.32
77161;BME280;66135;0.000;0.000;2023-02-28T05:53:33;102930.84;;;16.30;51.56
77161;BME280;66135;0.000;0.000;2023-02-28T05:55:59;102930.97;;;16.28;51.64
77161;BME280;66135;0.000;0.000;2023-02-28T05:58:25;102934.63;;;16.27;51.44
77161;BME280;66135;0.000;0.000;2023-02-28T06:00:54;102928.47;;;16.25;51.75
77161;BME280;66135;0.000;0.000;2023-02-28T06:03:19;102931.16;;;16.25;51.60
77161;BME280;66135;0.000;0.000;2023-02-28T06:05:45;102920.97;;;16.29;51.43
77161;BME280;66135;0.000;0.000;2023-02-28T06:08:10;102926.63;;;16.26;51.46
77161;BME280;66135;0.000;0.000;2023-02-28T06:10:36;102936.38;;;16.28;51.33
77161;BME280;66135;0.000;0.000;2023-02-28T06:13:09;102926.41;;;16.29;51.32
77161;BME280;66135;0.000;0.000;2023-02-28T06:15:35;102926.50;;;16.27;51.23
77161;BME280;66135;0.000;0.000;2023-02-28T06:18:01;102936.25;;;16.30;51.40
77161;BME280;66135;0.000;0.000;2023-02-28T06:20:27;102934.19;;;16.33;51.20
77161;BME280;66135;0.000;0.000;2023-02-28T06:22:56;102939.38;;;16.36;51.01
77161;BME280;66135;0.000;0.000;2023-02-28T06:25:24;102936.78;;;16.35;51.42
77161;BME280;66135;0.000;0.000;2023-02-28T06:27:49;102933.72;;;16.39;50.86
77161;BME280;66135;0.000;0.000;2023-02-28T06:30:15;102947.00;;;16.42;51.02
77161;BME280;66135;0.000;0.000;2023-02-28T06:32:40;102944.31;;;16.42;50.76
77161;BME280;66135;0.000;0.000;2023-02-28T06:35:06;102951.59;;;16.42;50.97
77161;BME280;66135;0.000;0.000;2023-02-28T06:37:32;102950.81;;;16.40;50.87
77161;BME280;66135;0.000;0.000;2023-02-28T06:39:57;102955.88;;;16.44;50.86
77161;BME280;66135;0.000;0.000;2023-02-28T06:42:23;102948.63;;;16.45;50.66
77161;BME280;66135;0.000;0.000;2023-02-28T06:44:58;102949.63;;;16.44;50.73
77161;BME280;66135;0.000;0.000;2023-02-28T06:47:24;102950.47;;;16.44;50.70
77161;BME280;66135;0.000;0.000;2023-02-28T06:49:49;102950.72;;;16.41;50.87
77161;BME280;66135;0.000;0.000;2023-02-28T06:52:15;102952.66;;;16.39;50.99
77161;BME280;66135;0.000;0.000;2023-02-28T06:54:41;102955.47;;;16.38;51.01
77161;BME280;66135;0.000;0.000;2023-02-28T06:57:07;102959.91;;;16.39;50.86
77161;BME280;66135;0.000;0.000;2023-02-28T06:59:33;102955.34;;;16.39;51.53
77161;BME280;66135;0.000;0.000;2023-02-28T07:01:58;102959.56;;;16.43;51.23
77161;BME280;66135;0.000;0.000;2023-02-28T07:04:24;102968.44;;;16.45;51.20
77161;BME280;66135;0.000;0.000;2023-02-28T07:06:49;102957.75;;;16.44;51.42
77161;BME280;66135;0.000;0.000;2023-02-28T07:09:15;102965.66;;;16.47;51.70
77161;BME280;66135;0.000;0.000;2023-02-28T07:11:40;102973.53;;;16.50;52.15
77161;BME280;66135;0.000;0.000;2023-02-28T07:14:08;102972.34;;;16.54;52.41
77161;BME280;66135;0.000;0.000;2023-02-28T07:16:35;102975.94;;;16.54;52.47
77161;BME280;66135;0.000;0.000;2023-02-28T07:19:00;102978.50;;;16.56;52.34
77161;BME280;66135;0.000;0.000;2023-02-28T07:21:26;102982.94;;;16.57;52.54
77161;BME280;66135;0.000;0.000;2023-02-28T07:23:51;102986.63;;;16.56;52.62
77161;BME280;66135;0.000;0.000;2023-02-28T07:26:19;102980.34;;;16.55;52.51
77161;BME280;66135;0.000;0.000;2023-02-28T07:28:46;102985.00;;;16.53;52.35
77161;BME280;66135;0.000;0.000;2023-02-28T07:31:13;102981.34;;;16.54;52.32
77161;BME280;66135;0.000;0.000;2023-02-28T07:33:42;102986.75;;;16.54;52.53
77161;BME280;66135;0.000;0.000;2023-02-28T07:36:14;102980.47;;;16.54;52.34
77161;BME280;66135;0.000;0.000;2023-02-28T07:38:42;102985.00;;;16.53;52.21
77161;BME280;66135;0.000;0.000;2023-02-28T07:41:08;102990.78;;;16.49;52.05
77161;BME280;66135;0.000;0.000;2023-02-28T07:43:33;102983.41;;;16.51;52.77
77161;BME280;66135;0.000;0.000;2023-02-28T07:46:09;102979.59;;;16.53;52.77
77161;BME280;66135;0.000;0.000;2023-02-28T07:48:35;102986.63;;;16.56;52.91
77161;BME280;66135;0.000;0.000;2023-02-28T07:51:00;102982.06;;;16.56;53.03
77161;BME280;66135;0.000;0.000;2023-02-28T07:53:27;102990.19;;;16.56;53.15
77161;BME280;66135;0.000;0.000;2023-02-28T07:55:56;102991.94;;;16.57;52.94
77161;BME280;66135;0.000;0.000;2023-02-28T07:58:22;102998.28;;;16.56;53.38
77161;BME280;66135;0.000;0.000;2023-02-28T08:00:48;103001.88;;;16.57;53.19
77161;BME280;66135;0.000;0.000;2023-02-28T08:03:17;103002.00;;;16.55;52.80
77161;BME280;66135;0.000;0.000;2023-02-28T08:05:43;102996.69;;;16.54;52.89
77161;BME280;66135;0.000;0.000;2023-02-28T08:08:08;103002.13;;;16.54;52.69
77161;BME280;66135;0.000;0.000;2023-02-28T08:10:34;102996.81;;;16.52;52.60
77161;BME280;66135;0.000;0.000;2023-02-28T08:12:59;103005.88;;;16.51;52.48
77161;BME280;66135;0.000;0.000;2023-02-28T08:15:25;103005.78;;;16.53;52.61
77161;BME280;66135;0.000;0.000;2023-02-28T08:17:51;103010.34;;;16.52;52.26
77161;BME280;66135;0.000;0.000;2023-02-28T08:20:16;103000.38;;;16.53;51.98
77161;BME280;66135;0.000;0.000;2023-02-28T08:22:41;103004.94;;;16.52;51.75
77161;BME280;66135;0.000;0.000;2023-02-28T08:25:07;103004.06;;;16.52;51.31
77161;BME280;66135;0.000;0.000;2023-02-28T08:27:33;103003.19;;;16.51;51.08
77161;BME280;66135;0.000;0.000;2023-02-28T08:29:58;103001.47;;;16.50;51.26
77161;BME280;66135;0.000;0.000;2023-02-28T08:32:27;103006.88;;;16.50;50.71
77161;BME280;66135;0.000;0.000;2023-02-28T08:34:52;102997.00;;;16.49;50.75
77161;BME280;66135;0.000;0.000;2023-02-28T08:37:18;102995.41;;;16.47;50.41
77161;BME280;66135;0.000;0.000;2023-02-28T08:39:43;102991.06;;;16.44;50.16
77161;BME280;66135;0.000;0.000;2023-02-28T08:42:08;102988.47;;;16.43;49.87
77161;BME280;66135;0.000;0.000;2023-02-28T08:44:34;102997.44;;;16.43;49.89
77161;BME280;66135;0.000;0.000;2023-02-28T08:46:59;102996.69;;;16.41;50.30
77161;BME280;66135;0.000;0.000;2023-02-28T08:49:25;102985.88;;;16.41;50.74
77161;BME280;66135;0.000;0.000;2023-02-28T08:51:50;102991.41;;;16.40;50.03
77161;BME280;66135;0.000;0.000;2023-02-28T08:54:16;102993.34;;;16.38;50.46
77161;BME280;66135;0.000;0.000;2023-02-28T08:56:45;102993.56;;;16.35;50.79
77161;BME280;66135;0.000;0.000;2023-02-28T08:59:11;102995.41;;;16.34;50.90
77161;BME280;66135;0.000;0.000;2023-02-28T09:01:36;102993.69;;;16.33;50.96
77161;BME280;66135;0.000;0.000;2023-02-28T09:04:02;102995.41;;;16.34;50.95
77161;BME280;66135;0.000;0.000;2023-02-28T09:06:28;102992.47;;;16.37;51.73
77161;BME280;66135;0.000;0.000;2023-02-28T09:08:56;102997.75;;;16.39;51.44
77161;BME280;66135;0.000;0.000;2023-02-28T09:11:23;102998.53;;;16.41;51.69
77161;BME280;66135;0.000;0.000;2023-02-28T09:13:48;102993.00;;;16.42;51.88
77161;BME280;66135;0.000;0.000;2023-02-28T09:16:15;102997.69;;;16.40;51.92
77161;BME280;66135;0.000;0.000;2023-02-28T09:18:41;102998.53;;;16.41;52.26
77161;BME280;66135;0.000;0.000;2023-02-28T09:21:17;102998.41;;;16.42;52.29
77161;BME280;66135;0.000;0.000;2023-02-28T09:23:47;102997.56;;;16.42;52.09
77161;BME280;66135;0.000;0.000;2023-02-28T09:26:18;102994.97;;;16.40;52.29
77161;BME280;66135;0.000;0.000;2023-02-28T09:28:43;102991.28;;;16.41;52.32
77161;BME280;66135;0.000;0.000;2023-02-28T09:31:18;102994.00;;;16.41;52.40
77161;BME280;66135;0.000;0.000;2023-02-28T09:33:51;102991.28;;;16.41;52.43
77161;BME280;66135;0.000;0.000;2023-02-28T09:36:17;102994.22;;;16.38;52.77
77161;BME280;66135;0.000;0.000;2023-02-28T09:38:51;102997.88;;;16.37;52.99
77161;BME280;66135;0.000;0.000;2023-02-28T09:46:58;102992.47;;;16.37;53.11
77161;BME280;66135;0.000;0.000;2023-02-28T09:49:40;102991.63;;;16.37;53.17
77161;BME280;66135;0.000;0.000;2023-02-28T09:52:11;102987.19;;;16.36;53.28
77161;BME280;66135;0.000;0.000;2023-02-28T09:54:38;102987.19;;;16.36;52.98
77161;BME280;66135;0.000;0.000;2023-02-28T09:57:20;102983.59;;;16.35;52.75
77161;BME280;66135;0.000;0.000;2023-02-28T10:00:27;102981.78;;;16.36;52.66
77161;BME280;66135;0.000;0.000;2023-02-28T10:03:12;102991.09;;;16.32;52.49
77161;BME280;66135;0.000;0.000;2023-02-28T10:05:56;102982.75;;;16.35;52.41
77161;BME280;66135;0.000;0.000;2023-02-28T10:08:31;102983.84;;;16.32;51.93
77161;BME280;66135;0.000;0.000;2023-02-28T10:11:01;102987.75;;;16.28;51.75
77161;BME280;66135;0.000;0.000;2023-02-28T10:14:33;102982.34;;;16.28;50.69
77161;BME280;66135;0.000;0.000;2023-02-28T10:19:05;102980.28;;;16.32;50.90
77161;BME280;66135;0.000;0.000;2023-02-28T10:21:36;102974.00;;;16.31;51.04
77161;BME280;66135;0.000;0.000;2023-02-28T10:24:28;102972.06;;;16.33;51.17
77161;BME280;66135;0.000;0.000;2023-02-28T10:27:16;102969.22;;;16.35;50.94
77161;BME280;66135;0.000;0.000;2023-02-28T10:29:51;102971.81;;;16.36;51.35
77161;BME280;66135;0.000;0.000;2023-02-28T10:32:18;102958.06;;;16.39;51.77
77161;BME280;66135;0.000;0.000;2023-02-28T10:35:15;102965.22;;;16.40;51.79
77161;BME280;66135;0.000;0.000;2023-02-28T10:37:42;102950.72;;;16.41;52.03
77161;BME280;66135;0.000;0.000;2023-02-28T10:43:04;102959.69;;;16.42;52.49
77161;BME280;66135;0.000;0.000;2023-02-28T10:45:32;102962.41;;;16.42;52.72
77161;BME280;66135;0.000;0.000;2023-02-28T10:58:54;102954.16;;;16.43;53.75
77161;BME280;66135;0.000;0.000;2023-02-28T11:01:23;102942.25;;;16.46;53.71
77161;BME280;66135;0.000;0.000;2023-02-28T11:03:49;102957.63;;;16.45;53.95
77161;BME280;66135;0.000;0.000;2023-02-28T11:06:35;102938.69;;;16.45;54.09
77161;BME280;66135;0.000;0.000;2023-02-28T11:09:04;102942.25;;;16.46;54.19
77161;BME280;66135;0.000;0.000;2023-02-28T11:11:53;102948.44;;;16.48;54.26
77161;BME280;66135;0.000;0.000;2023-02-28T11:14:47;102936.78;;;16.47;54.41
77161;BME280;66135;0.000;0.000;2023-02-28T11:17:20;102936.78;;;16.47;54.46
77161;BME280;66135;0.000;0.000;2023-02-28T11:19:56;102937.63;;;16.48;54.21
77161;BME280;66135;0.000;0.000;2023-02-28T11:22:39;102938.50;;;16.48;54.48
77161;BME280;66135;0.000;0.000;2023-02-28T11:25:35;102937.72;;;16.46;54.42
77161;BME280;66135;0.000;0.000;2023-02-28T11:28:05;102938.69;;;16.45;54.74
77161;BME280;66135;0.000;0.000;2023-02-28T11:30:37;102936.81;;;16.46;55.82
77161;BME280;66135;0.000;0.000;2023-02-28T11:33:37;102934.91;;;16.48;55.07
77161;BME280;66135;0.000;0.000;2023-02-28T11:36:11;102930.50;;;16.47;55.25
77161;BME280;66135;0.000;0.000;2023-02-28T11:38:37;102921.50;;;16.46;54.86
77161;BME280;66135;0.000;0.000;2023-02-28T11:46:43;102919.66;;;16.47;55.00
77161;BME280;66135;0.000;0.000;2023-02-28T11:50:11;102926.00;;;16.46;54.78
77161;BME280;66135;0.000;0.000;2023-02-28T12:03:23;102909.91;;;16.44;55.41
77161;BME280;66135;0.000;0.000;2023-02-28T12:09:08;102908.19;;;16.43;55.62
77161;BME280;66135;0.000;0.000;2023-02-28T12:11:52;102900.06;;;16.43;55.71
77161;BME280;66135;0.000;0.000;2023-02-28T12:14:49;102914.34;;;16.45;55.71
77161;BME280;66135;0.000;0.000;2023-02-28T12:23:18;102903.97;;;16.39;55.40
77161;BME280;66135;0.000;0.000;2023-02-28T12:28:58;102894.88;;;16.40;55.28
77161;BME280;66135;0.000;0.000;2023-02-28T12:31:38;102891.31;;;16.40;55.11
77161;BME280;66135;0.000;0.000;2023-02-28T12:34:18;102892.28;;;16.39;55.42
77161;BME280;66135;0.000;0.000;2023-02-28T12:36:47;102887.72;;;16.39;55.35
77161;BME280;66135;0.000;0.000;2023-02-28T12:39:38;102887.72;;;16.39;55.53
77161;BME280;66135;0.000;0.000;2023-02-28T12:42:19;102880.63;;;16.38;55.52
77161;BME280;66135;0.000;0.000;2023-02-28T12:45:18;102885.16;;;16.38;55.87
77161;BME280;66135;0.000;0.000;2023-02-28T12:47:46;102874.44;;;16.36;55.86
77161;BME280;66135;0.000;0.000;2023-02-28T12:50:17;102880.72;;;16.37;55.82
77161;BME280;66135;0.000;0.000;2023-02-28T12:55:32;102870.00;;;16.35;56.09
77161;BME280;66135;0.000;0.000;2023-02-28T12:58:05;102860.16;;;16.34;55.97
77161;BME280;66135;0.000;0.000;2023-02-28T13:00:39;102860.16;;;16.34;56.24
77161;BME280;66135;0.000;0.000;2023-02-28T13:08:37;102839.66;;;16.32;55.88
77161;BME280;66135;0.000;0.000;2023-02-28T13:11:06;102844.19;;;16.31;55.83
77161;BME280;66135;0.000;0.000;2023-02-28T13:13:31;102851.44;;;16.31;55.62
77161;BME280;66135;0.000;0.000;2023-02-28T13:16:07;102845.91;;;16.32;55.37
77161;BME280;66135;0.000;0.000;2023-02-28T13:18:39;102844.19;;;16.31;55.36
77161;BME280;66135;0.000;0.000;2023-02-28T13:21:21;102837.03;;;16.30;55.01
77161;BME280;66135;0.000;0.000;2023-02-28T13:29:01;102834.56;;;16.27;53.95
77161;BME280;66135;0.000;0.000;2023-02-28T13:31:27;102833.59;;;16.28;54.65
77161;BME280;66135;0.000;0.000;2023-02-28T13:34:14;102831.84;;;16.27;55.06
77161;BME280;66135;0.000;0.000;2023-02-28T13:36:40;102821.03;;;16.27;55.34
77161;BME280;66135;0.000;0.000;2023-02-28T13:47:44;102820.81;;;16.30;55.29
77161;BME280;66135;0.000;0.000;2023-02-28T13:50:33;102824.38;;;16.31;55.56
77161;BME280;66135;0.000;0.000;2023-02-28T13:55:48;102813.44;;;16.32;55.28
77161;BME280;66135;0.000;0.000;2023-02-28T14:06:57;102813.19;;;16.35;55.27
77161;BME280;66135;0.000;0.000;2023-02-28T14:09:39;102823.19;;;16.35;55.30
77161;BME280;66135;0.000;0.000;2023-02-28T14:12:58;102812.34;;;16.35;55.36
77161;BME280;66135;0.000;0.000;2023-02-28T14:15:55;102813.19;;;16.35;55.44
77161;BME280;66135;0.000;0.000;2023-02-28T14:18:23;102815.06;;;16.35;55.29
77161;BME280;66135;0.000;0.000;2023-02-28T14:20:54;102813.19;;;16.35;55.30
77161;BME280;66135;0.000;0.000;2023-02-28T14:36:59;102803.38;;;16.34;55.33
77161;BME280;66135;0.000;0.000;2023-02-28T14:39:27;102798.97;;;16.33;55.57
77161;BME280;66135;0.000;0.000;2023-02-28T14:41:56;102798.97;;;16.33;55.34
77161;BME280;66135;0.000;0.000;2023-02-28T14:44:27;102799.78;;;16.34;55.38
77161;BME280;66135;0.000;0.000;2023-02-28T14:46:58;102807.91;;;16.34;55.56
77161;BME280;66135;0.000;0.000;2023-02-28T14:49:29;102796.25;;;16.33;55.00
77161;BME280;66135;0.000;0.000;2023-02-28T14:52:15;102801.66;;;16.33;55.05
77161;BME280;66135;0.000;0.000;2023-02-28T14:54:43;102795.50;;;16.31;54.26
77161;BME280;66135;0.000;0.000;2023-02-28T14:57:40;102800.91;;;16.31;53.91
77161;BME280;66135;0.000;0.000;2023-02-28T15:02:34;102790.09;;;16.31;54.06
77161;BME280;66135;0.000;0.000;2023-02-28T15:05:30;102785.56;;;16.32;54.23
77161;BME280;66135;0.000;0.000;2023-02-28T15:08:16;102784.69;;;16.31;54.40
77161;BME280;66135;0.000;0.000;2023-02-28T15:11:05;102787.38;;;16.31;54.80
77161;BME280;66135;0.000;0.000;2023-02-28T15:13:51;102786.41;;;16.32;55.14
77161;BME280;66135;0.000;0.000;2023-02-28T15:18:54;102793.53;;;16.33;55.34
77161;BME280;66135;0.000;0.000;2023-02-28T15:21:44;102799.91;;;16.32;55.58
77161;BME280;66135;0.000;0.000;2023-02-28T15:24:37;102792.91;;;16.30;55.69
77161;BME280;66135;0.000;0.000;2023-02-28T15:27:25;102793.88;;;16.29;55.58
77161;BME280;66135;0.000;0.000;2023-02-28T15:29:57;102788.59;;;16.27;55.18